Time;durP1;ratioP1;P1;durP2;ratioP2;P2;SDS_P1;SDS_P2;PMS_P1;PMS_P2;Temp;Humidity;BMP_temperature;BMP_pressure;BME280_temperature;BME280_humidity;BME280_pressure;Samples;Min_cycle;Max_cycle;Signal;HPM_P1;HPM_P2
2022/12/19 00:01:42;;;;;;;38.35;18.48;;;;;;;;;;5034054;28;20026;-63
2022/12/19 00:04:09;;;;;;;40.50;18.60;;;;;;;;;;5032202;28;20014;-64
2022/12/19 00:06:36;;;;;;;39.90;21.13;;;;;;;;;;5033645;28;20037;-63
2022/12/19 00:09:03;;;;;;;35.58;18.13;;;;;;;;;;5016515;28;20026;-64
2022/12/19 00:11:29;;;;;;;37.22;18.10;;;;;;;;;;5034145;28;20049;-63
2022/12/19 00:13:55;;;;;;;33.67;18.00;;;;;;;;;;5015572;28;20029;-64
2022/12/19 00:16:22;;;;;;;36.95;18.83;;;;;;;;;;5034965;28;20033;-63
2022/12/19 00:18:49;;;;;;;39.80;20.00;;;;;;;;;;5017388;28;20091;-62
2022/12/19 00:21:16;;;;;;;34.47;17.27;;;;;;;;;;5034890;28;20018;-63
2022/12/19 00:23:42;;;;;;;34.60;19.15;;;;;;;;;;5034352;28;20028;-62
2022/12/19 00:26:08;;;;;;;35.13;18.25;;;;;;;;;;5017215;28;20044;-63
2022/12/19 00:28:34;;;;;;;40.28;19.90;;;;;;;;;;5034963;28;20025;-63
2022/12/19 00:31:01;;;;;;;34.58;18.20;;;;;;;;;;5035208;28;20034;-63
2022/12/19 00:33:27;;;;;;;38.55;18.63;;;;;;;;;;5016395;28;20148;-63
2022/12/19 00:36:00;;;;;;;35.70;18.85;;;;;;;;;;5034848;28;20116;-63
2022/12/19 00:38:26;;;;;;;38.72;20.00;;;;;;;;;;5034331;28;20491;-63
2022/12/19 00:40:52;;;;;;;36.83;19.60;;;;;;;;;;5016988;28;20023;-63
2022/12/19 00:43:18;;;;;;;38.70;20.58;;;;;;;;;;5033403;28;20417;-64
2022/12/19 00:45:44;;;;;;;36.58;20.83;;;;;;;;;;5034619;28;20021;-63
2022/12/19 00:48:10;;;;;;;39.72;21.40;;;;;;;;;;5016547;28;20040;-64
2022/12/19 00:50:36;;;;;;;36.95;20.33;;;;;;;;;;5034656;28;20036;-63
2022/12/19 00:53:02;;;;;;;39.53;20.95;;;;;;;;;;5033872;28;20048;-63
2022/12/19 00:55:29;;;;;;;45.50;25.80;;;;;;;;;;5034360;28;20033;-63
2022/12/19 00:57:55;;;;;;;52.00;28.65;;;;;;;;;;5033851;28;20444;-63
2022/12/19 01:00:21;;;;;;;34.22;18.38;;;;;;;;;;5034219;28;20033;-64
2022/12/19 01:02:47;;;;;;;39.15;20.38;;;;;;;;;;5034150;28;20028;-63
2022/12/19 01:05:13;;;;;;;37.42;19.35;;;;;;;;;;5015950;28;20022;-63
2022/12/19 01:07:39;;;;;;;35.67;18.10;;;;;;;;;;5034350;28;20092;-63
2022/12/19 01:10:05;;;;;;;34.13;18.60;;;;;;;;;;5034271;28;20417;-62
2022/12/19 01:12:47;;;;;;;37.90;18.60;;;;;;;;;;5016156;28;20393;-62
2022/12/19 01:15:17;;;;;;;37.63;19.40;;;;;;;;;;5033309;28;20028;-63
2022/12/19 01:17:43;;;;;;;36.83;17.88;;;;;;;;;;5033931;28;20096;-62
2022/12/19 01:20:10;;;;;;;39.88;20.08;;;;;;;;;;5016176;28;20087;-61
2022/12/19 01:22:36;;;;;;;39.63;21.83;;;;;;;;;;5016194;28;20034;-62
2022/12/19 01:25:02;;;;;;;38.90;20.27;;;;;;;;;;5033075;28;20021;-63
2022/12/19 01:27:28;;;;;;;37.25;19.08;;;;;;;;;;5015918;28;20375;-62
2022/12/19 01:29:54;;;;;;;37.13;19.55;;;;;;;;;;5015927;28;20040;-63
2022/12/19 01:32:22;;;;;;;41.03;20.50;;;;;;;;;;5033724;28;20021;-63
2022/12/19 01:34:48;;;;;;;35.53;18.77;;;;;;;;;;5032651;28;20499;-62
2022/12/19 01:37:17;;;;;;;34.63;18.45;;;;;;;;;;5033372;28;20037;-62
2022/12/19 01:39:43;;;;;;;36.28;18.20;;;;;;;;;;5033548;28;20477;-62
2022/12/19 01:42:16;;;;;;;37.83;20.65;;;;;;;;;;5015625;28;20378;-63
2022/12/19 01:45:18;;;;;;;35.75;18.33;;;;;;;;;;5032729;28;20113;-62
2022/12/19 01:47:49;;;;;;;37.50;19.67;;;;;;;;;;4933692;29;20534;-62
2022/12/19 01:50:18;;;;;;;33.35;17.95;;;;;;;;;;5016639;28;20069;-65
2022/12/19 01:52:44;;;;;;;38.22;18.60;;;;;;;;;;5033172;28;20028;-62
2022/12/19 01:55:11;;;;;;;35.28;20.38;;;;;;;;;;5013849;28;20026;-62
2022/12/19 01:57:38;;;;;;;35.65;20.98;;;;;;;;;;5032969;28;20025;-65
2022/12/19 02:00:08;;;;;;;39.63;20.90;;;;;;;;;;5033185;28;20029;-64
2022/12/19 02:02:39;;;;;;;36.17;18.90;;;;;;;;;;5033158;28;20025;-62
2022/12/19 02:05:05;;;;;;;35.85;20.20;;;;;;;;;;5032171;28;20030;-62
2022/12/19 02:07:32;;;;;;;36.00;19.70;;;;;;;;;;5015202;28;20049;-62
2022/12/19 02:09:58;;;;;;;36.30;19.73;;;;;;;;;;5014211;28;20026;-62
2022/12/19 02:12:25;;;;;;;38.42;21.30;;;;;;;;;;5015142;28;20112;-61
2022/12/19 02:14:51;;;;;;;36.42;18.33;;;;;;;;;;5014331;28;20052;-62
2022/12/19 02:17:22;;;;;;;37.85;18.92;;;;;;;;;;5032665;28;20028;-62
2022/12/19 02:20:00;;;;;;;38.35;20.13;;;;;;;;;;5032791;28;20029;-61
2022/12/19 02:22:26;;;;;;;;;;;;;;;;;;5015507;28;20025;-62
2022/12/19 02:25:01;;;;;;;33.72;18.02;;;;;;;;;;5031904;28;19912;-62
2022/12/19 02:27:39;;;;;;;32.03;17.70;;;;;;;;;;5032408;28;20108;-63
2022/12/19 02:30:07;;;;;;;32.83;17.58;;;;;;;;;;5032403;28;20057;-62
2022/12/19 02:32:52;;;;;;;37.53;20.00;;;;;;;;;;5032459;28;20029;-61
2022/12/19 02:35:37;;;;;;;34.83;18.08;;;;;;;;;;5031690;28;20036;-63
2022/12/19 02:38:17;;;;;;;36.15;20.17;;;;;;;;;;5032218;28;20064;-61
2022/12/19 02:40:53;;;;;;;37.78;18.13;;;;;;;;;;5032333;28;20549;-62
2022/12/19 02:43:20;;;;;;;34.22;19.63;;;;;;;;;;5031501;28;20398;-64
2022/12/19 02:45:46;;;;;;;39.03;19.50;;;;;;;;;;5014593;28;20422;-62
2022/12/19 02:48:12;;;;;;;39.70;20.70;;;;;;;;;;5032170;28;20551;-62
2022/12/19 02:50:39;;;;;;;33.30;17.20;;;;;;;;;;5032324;28;20060;-62
2022/12/19 02:53:06;;;;;;;36.33;19.00;;;;;;;;;;5031699;28;20036;-62
2022/12/19 02:55:36;;;;;;;34.53;19.42;;;;;;;;;;5032115;28;20117;-62
2022/12/19 02:58:17;;;;;;;36.42;18.60;;;;;;;;;;5014390;28;20034;-62
2022/12/19 03:00:52;;;;;;;36.55;20.02;;;;;;;;;;5032236;28;20478;-61
2022/12/19 03:03:18;;;;;;;41.65;20.80;;;;;;;;;;5031359;28;20029;-62
2022/12/19 03:05:56;;;;;;;34.72;19.45;;;;;;;;;;5032110;28;20075;-62
2022/12/19 03:08:33;;;;;;;35.72;17.88;;;;;;;;;;5031938;28;20053;-62
2022/12/19 03:11:04;;;;;;;35.60;18.83;;;;;;;;;;5031905;28;20394;-63
2022/12/19 03:13:33;;;;;;;34.42;18.63;;;;;;;;;;5031157;28;20474;-62
2022/12/19 03:16:00;;;;;;;37.08;18.90;;;;;;;;;;5031826;28;20155;-62
2022/12/19 03:18:27;;;;;;;37.67;20.02;;;;;;;;;;5013934;28;20034;-62
2022/12/19 03:21:02;;;;;;;39.58;19.95;;;;;;;;;;5013929;28;20429;-62
2022/12/19 03:23:29;;;;;;;36.78;18.40;;;;;;;;;;5013305;28;20025;-62
2022/12/19 03:25:57;;;;;;;34.85;18.58;;;;;;;;;;5031744;28;20022;-62
2022/12/19 03:28:26;;;;;;;35.17;19.88;;;;;;;;;;5031651;28;20025;-63
2022/12/19 03:30:54;;;;;;;36.10;18.85;;;;;;;;;;5031626;28;20026;-63
2022/12/19 03:33:21;;;;;;;37.47;19.63;;;;;;;;;;5031149;28;20025;-62
2022/12/19 03:35:48;;;;;;;35.50;18.38;;;;;;;;;;5013868;28;20057;-62
2022/12/19 03:38:15;;;;;;;35.55;18.08;;;;;;;;;;5013591;28;20179;-63
2022/12/19 03:40:42;;;;;;;38.33;19.10;;;;;;;;;;5013875;28;20633;-63
2022/12/19 03:43:09;;;;;;;33.70;17.00;;;;;;;;;;5013147;28;20021;-63
2022/12/19 03:45:44;;;;;;;33.65;18.55;;;;;;;;;;5031497;28;20260;-62
2022/12/19 03:48:25;;;;;;;37.42;19.00;;;;;;;;;;5013867;28;20501;-62
2022/12/19 03:50:56;;;;;;;35.75;20.10;;;;;;;;;;5031602;28;20026;-63
2022/12/19 03:53:34;;;;;;;37.28;21.20;;;;;;;;;;5030579;28;20060;-62
2022/12/19 03:56:32;;;;;;;38.30;19.63;;;;;;;;;;5031480;28;20109;-62
2022/12/19 03:59:06;;;;;;;34.22;17.90;;;;;;;;;;4970852;28;20136;-62
2022/12/19 04:01:32;;;;;;;34.40;19.75;;;;;;;;;;5031421;28;20025;-62
2022/12/19 04:03:59;;;;;;;32.58;19.05;;;;;;;;;;5030707;28;20398;-62
2022/12/19 04:06:27;;;;;;;33.10;17.08;;;;;;;;;;5031246;28;20999;-62
2022/12/19 04:08:53;;;;;;;35.80;19.38;;;;;;;;;;5013438;28;20179;-64
2022/12/19 04:11:20;;;;;;;33.40;18.55;;;;;;;;;;5031264;28;20037;-62
2022/12/19 04:13:51;;;;;;;37.60;20.35;;;;;;;;;;5030549;28;20033;-62
2022/12/19 04:16:26;;;;;;;37.97;18.77;;;;;;;;;;5031047;28;20065;-62
2022/12/19 04:18:55;;;;;;;32.80;19.48;;;;;;;;;;5015082;28;20112;-62
2022/12/19 04:21:27;;;;;;;35.72;18.55;;;;;;;;;;5017345;28;20021;-62
2022/12/19 04:23:56;;;;;;;33.20;17.55;;;;;;;;;;5016376;28;20029;-64
2022/12/19 04:26:22;;;;;;;39.40;18.65;;;;;;;;;;5034631;28;20036;-62
2022/12/19 04:28:58;;;;;;;34.22;18.58;;;;;;;;;;5034538;28;20091;-62
2022/12/19 04:31:24;;;;;;;38.63;21.10;;;;;;;;;;5017111;28;20025;-62
2022/12/19 04:33:50;;;;;;;38.28;18.25;;;;;;;;;;5033877;28;20026;-61
2022/12/19 04:36:16;;;;;;;39.50;20.25;;;;;;;;;;5034624;28;20071;-62
2022/12/19 04:38:42;;;;;;;34.22;17.65;;;;;;;;;;5016548;28;20033;-62
2022/12/19 04:41:08;;;;;;;36.72;18.90;;;;;;;;;;5034512;28;20387;-62
2022/12/19 04:43:34;;;;;;;33.22;19.08;;;;;;;;;;5033710;28;20022;-62
2022/12/19 04:46:00;;;;;;;34.55;18.48;;;;;;;;;;5016792;28;20064;-61
2022/12/19 04:48:26;;;;;;;37.22;20.20;;;;;;;;;;5034256;28;20032;-61
2022/12/19 04:50:52;;;;;;;36.42;18.67;;;;;;;;;;5034240;28;20071;-59
2022/12/19 04:53:18;;;;;;;36.00;19.15;;;;;;;;;;5033540;28;20433;-62
2022/12/19 04:55:44;;;;;;;31.52;19.00;;;;;;;;;;5016187;28;20474;-65
2022/12/19 04:58:11;;;;;;;41.53;19.58;;;;;;;;;;5033648;28;20028;-62
2022/12/19 05:00:37;;;;;;;40.22;19.42;;;;;;;;;;5016173;28;20390;-62
2022/12/19 05:03:03;;;;;;;32.85;19.98;;;;;;;;;;5033201;28;20029;-62
2022/12/19 05:05:29;;;;;;;38.50;21.52;;;;;;;;;;5033341;28;20064;-63
2022/12/19 05:07:58;;;;;;;32.20;19.40;;;;;;;;;;5016159;28;20053;-64
2022/12/19 05:10:24;;;;;;;32.90;19.23;;;;;;;;;;5033836;28;20405;-62
2022/12/19 05:12:50;;;;;;;35.20;20.27;;;;;;;;;;5033719;28;20101;-62
2022/12/19 05:15:16;;;;;;;39.45;20.63;;;;;;;;;;5015390;28;20460;-63
2022/12/19 05:17:42;;;;;;;35.63;20.52;;;;;;;;;;5033736;28;20025;-62
2022/12/19 05:20:09;;;;;;;42.83;21.17;;;;;;;;;;5033697;28;20108;-63
2022/12/19 05:22:35;;;;;;;38.40;20.55;;;;;;;;;;5033476;28;20026;-63
2022/12/19 05:25:01;;;;;;;35.95;20.40;;;;;;;;;;5033472;28;20407;-64
2022/12/19 05:27:27;;;;;;;36.03;20.60;;;;;;;;;;5016020;28;20108;-61
2022/12/19 05:29:53;;;;;;;38.38;21.50;;;;;;;;;;5014499;28;20478;-63
2022/12/19 05:32:19;;;;;;;35.85;21.50;;;;;;;;;;5033286;28;20033;-62
2022/12/19 05:34:45;;;;;;;32.67;19.25;;;;;;;;;;5032763;28;20056;-63
2022/12/19 05:37:11;;;;;;;35.08;20.38;;;;;;;;;;5033193;28;20057;-61
2022/12/19 05:39:37;;;;;;;32.00;19.88;;;;;;;;;;5033370;28;20031;-62
2022/12/19 05:42:03;;;;;;;37.05;21.40;;;;;;;;;;5033358;28;20485;-63
2022/12/19 05:44:29;;;;;;;37.05;22.83;;;;;;;;;;5032728;28;20407;-62
2022/12/19 05:46:55;;;;;;;42.47;21.58;;;;;;;;;;5033263;28;20040;-61
2022/12/19 05:49:21;;;;;;;47.15;23.95;;;;;;;;;;5033068;28;20021;-64
2022/12/19 05:51:47;;;;;;;33.75;20.33;;;;;;;;;;5032909;28;20051;-62
2022/12/19 05:54:13;;;;;;;38.78;22.60;;;;;;;;;;5032228;28;20474;-62
2022/12/19 05:56:39;;;;;;;34.70;21.02;;;;;;;;;;5014907;28;20492;-62
2022/12/19 05:59:05;;;;;;;40.38;21.67;;;;;;;;;;5046751;22;20049;-63
2022/12/19 06:01:31;;;;;;;45.35;23.98;;;;;;;;;;5030442;28;20032;-66
2022/12/19 06:03:57;;;;;;;39.80;22.70;;;;;;;;;;5029524;28;20022;-65
2022/12/19 06:06:24;;;;;;;39.58;22.63;;;;;;;;;;5031500;28;20042;-65
2022/12/19 06:08:54;;;;;;;39.33;23.88;;;;;;;;;;5031273;28;20025;-65
2022/12/19 06:11:20;;;;;;;39.80;26.33;;;;;;;;;;5013280;28;20025;-64
2022/12/19 06:13:46;;;;;;;41.45;26.30;;;;;;;;;;5012566;28;20040;-63
2022/12/19 06:16:13;;;;;;;44.50;30.15;;;;;;;;;;5030914;28;20080;-64
2022/12/19 06:18:43;;;;;;;46.25;33.58;;;;;;;;;;5030754;28;20104;-65
2022/12/19 06:21:16;;;;;;;42.85;33.63;;;;;;;;;;5030598;28;20017;-64
2022/12/19 06:23:42;;;;;;;40.90;34.58;;;;;;;;;;5012563;28;20107;-65
2022/12/19 06:26:10;;;;;;;42.80;36.45;;;;;;;;;;5030668;28;20029;-63
2022/12/19 06:28:36;;;;;;;48.58;39.38;;;;;;;;;;5012986;28;20032;-63
2022/12/19 06:31:03;;;;;;;47.72;38.00;;;;;;;;;;5013072;28;20021;-66
2022/12/19 06:33:30;;;;;;;47.33;38.22;;;;;;;;;;5030266;28;20029;-65
2022/12/19 06:36:00;;;;;;;54.42;43.70;;;;;;;;;;5031081;28;20052;-65
2022/12/19 06:38:26;;;;;;;50.38;40.53;;;;;;;;;;5011053;28;20271;-65
2022/12/19 06:43:37;;;;;;;49.80;40.97;;;;;;;;;;5030286;28;20039;-64
2022/12/19 06:46:03;;;;;;;53.03;41.00;;;;;;;;;;5030785;28;20097;-64
2022/12/19 06:48:29;;;;;;;49.70;42.50;;;;;;;;;;5015388;28;20025;-60
2022/12/19 06:50:55;;;;;;;57.72;45.00;;;;;;;;;;5012685;28;20030;-65
2022/12/19 06:53:21;;;;;;;49.08;43.97;;;;;;;;;;5029753;28;20087;-65
2022/12/19 06:55:48;;;;;;;55.05;45.90;;;;;;;;;;5012376;28;20481;-65
2022/12/19 06:58:14;;;;;;;50.28;43.88;;;;;;;;;;5029849;28;20057;-64
2022/12/19 07:00:40;;;;;;;52.47;46.95;;;;;;;;;;5030470;28;20056;-65
2022/12/19 07:03:07;;;;;;;53.35;46.80;;;;;;;;;;5029580;28;20474;-66
2022/12/19 07:05:33;;;;;;;59.60;49.58;;;;;;;;;;5030135;28;20316;-64
2022/12/19 07:08:00;;;;;;;55.28;47.92;;;;;;;;;;5030585;28;20032;-64
2022/12/19 07:10:26;;;;;;;63.63;48.10;;;;;;;;;;5030041;28;20029;-62
2022/12/19 07:12:52;;;;;;;52.60;45.80;;;;;;;;;;5030013;28;20029;-65
2022/12/19 07:15:18;;;;;;;51.85;46.42;;;;;;;;;;5029826;28;20014;-66
2022/12/19 07:17:44;;;;;;;53.20;46.83;;;;;;;;;;5029902;28;20032;-65
2022/12/19 07:20:10;;;;;;;57.22;48.72;;;;;;;;;;5013108;28;20030;-66
2022/12/19 07:22:36;;;;;;;63.75;50.88;;;;;;;;;;5030154;28;20026;-65
2022/12/19 07:25:04;;;;;;;57.83;51.63;;;;;;;;;;5030169;28;20044;-65
2022/12/19 07:27:31;;;;;;;58.67;50.88;;;;;;;;;;5012242;28;20053;-63
2022/12/19 07:29:57;;;;;;;56.28;50.47;;;;;;;;;;5029987;28;20025;-64
2022/12/19 07:32:23;;;;;;;61.17;52.15;;;;;;;;;;5030113;28;20125;-65
2022/12/19 07:34:49;;;;;;;55.25;49.72;;;;;;;;;;5029974;28;20117;-65
2022/12/19 07:37:15;;;;;;;54.10;48.50;;;;;;;;;;5012472;28;20073;-63
2022/12/19 07:39:41;;;;;;;59.90;51.28;;;;;;;;;;5030355;28;20219;-65
2022/12/19 07:42:07;;;;;;;55.72;49.60;;;;;;;;;;5030632;28;20128;-65
2022/12/19 07:44:33;;;;;;;54.70;49.28;;;;;;;;;;5029847;28;20465;-65
2022/12/19 07:46:59;;;;;;;56.50;50.50;;;;;;;;;;5011983;28;20021;-69
2022/12/19 07:49:25;;;;;;;53.58;48.08;;;;;;;;;;5030103;28;20041;-66
2022/12/19 07:51:51;;;;;;;55.25;49.35;;;;;;;;;;5030709;28;20540;-66
2022/12/19 07:54:17;;;;;;;52.42;47.42;;;;;;;;;;5032114;28;20030;-65
2022/12/19 07:56:43;;;;;;;52.70;47.35;;;;;;;;;;5034217;28;20029;-66
2022/12/19 07:59:09;;;;;;;53.33;47.85;;;;;;;;;;5033957;28;20060;-65
2022/12/19 08:01:35;;;;;;;52.80;47.22;;;;;;;;;;5033689;28;20087;-65
2022/12/19 08:04:01;;;;;;;51.45;46.35;;;;;;;;;;5033343;28;20472;-65
2022/12/19 08:06:27;;;;;;;51.47;46.30;;;;;;;;;;5034288;28;20109;-64
2022/12/19 08:08:53;;;;;;;53.28;48.00;;;;;;;;;;5034098;28;20030;-65
2022/12/19 08:11:26;;;;;;;52.03;46.90;;;;;;;;;;5032906;28;20025;-65
2022/12/19 08:13:52;;;;;;;51.92;46.83;;;;;;;;;;5033612;28;20045;-66
2022/12/19 08:16:18;;;;;;;52.05;46.78;;;;;;;;;;5034146;28;20029;-65
2022/12/19 08:18:44;;;;;;;52.17;47.05;;;;;;;;;;5033897;28;20343;-65
2022/12/19 08:21:10;;;;;;;50.33;45.53;;;;;;;;;;5016337;28;20079;-65
2022/12/19 08:23:40;;;;;;;51.35;46.40;;;;;;;;;;5033378;28;20078;-64
2022/12/19 08:26:07;;;;;;;50.83;46.20;;;;;;;;;;5034089;28;20343;-66
2022/12/19 08:28:34;;;;;;;49.88;45.33;;;;;;;;;;5015858;28;20553;-65
2022/12/19 08:31:05;;;;;;;51.63;46.78;;;;;;;;;;5033312;28;20063;-65
2022/12/19 08:33:31;;;;;;;52.72;47.78;;;;;;;;;;5032469;28;20029;-65
2022/12/19 08:35:57;;;;;;;50.40;45.88;;;;;;;;;;5033621;28;20027;-65
2022/12/19 08:38:23;;;;;;;49.25;44.63;;;;;;;;;;5033315;28;20407;-65
2022/12/19 08:40:53;;;;;;;52.30;47.38;;;;;;;;;;5033177;28;20146;-65
2022/12/19 08:43:19;;;;;;;51.97;46.83;;;;;;;;;;5032985;28;20363;-65
2022/12/19 08:45:47;;;;;;;51.95;46.53;;;;;;;;;;5033688;28;20025;-65
2022/12/19 08:48:13;;;;;;;51.30;46.22;;;;;;;;;;5033309;28;20022;-64
2022/12/19 08:50:39;;;;;;;50.67;45.80;;;;;;;;;;5033741;28;20025;-66
2022/12/19 08:53:05;;;;;;;51.08;46.25;;;;;;;;;;5033031;28;20394;-66
2022/12/19 08:55:31;;;;;;;51.70;46.63;;;;;;;;;;5015656;28;20178;-66
2022/12/19 08:57:57;;;;;;;52.22;47.08;;;;;;;;;;5032802;28;20033;-64
2022/12/19 09:00:23;;;;;;;54.15;48.80;;;;;;;;;;5033209;28;20022;-66
2022/12/19 09:02:50;;;;;;;50.50;45.65;;;;;;;;;;5033664;28;20463;-65
2022/12/19 09:05:16;;;;;;;51.60;46.45;;;;;;;;;;5032261;28;20100;-65
2022/12/19 09:07:42;;;;;;;49.53;44.78;;;;;;;;;;5033178;28;20024;-65
2022/12/19 09:10:08;;;;;;;53.63;48.50;;;;;;;;;;5032368;28;20120;-64
2022/12/19 09:12:34;;;;;;;50.40;45.63;;;;;;;;;;5014318;28;20056;-64
2022/12/19 09:15:00;;;;;;;52.53;47.30;;;;;;;;;;5013098;28;20355;-64
2022/12/19 09:17:27;;;;;;;51.17;46.38;;;;;;;;;;5016170;28;20128;-65
2022/12/19 09:19:53;;;;;;;51.53;46.63;;;;;;;;;;5032103;28;20091;-63
2022/12/19 09:22:19;;;;;;;50.25;45.08;;;;;;;;;;5032641;28;20114;-64
2022/12/19 09:24:45;;;;;;;51.17;46.15;;;;;;;;;;5031786;28;20409;-63
2022/12/19 09:27:12;;;;;;;50.65;45.65;;;;;;;;;;5032751;28;20079;-64
2022/12/19 09:29:38;;;;;;;51.70;46.38;;;;;;;;;;5032650;28;20612;-64
2022/12/19 09:32:04;;;;;;;51.00;46.03;;;;;;;;;;5032470;28;20036;-64
2022/12/19 09:34:30;;;;;;;48.13;43.70;;;;;;;;;;5030419;28;20401;-65
2022/12/19 09:36:57;;;;;;;48.60;44.00;;;;;;;;;;5032182;28;20096;-65
2022/12/19 09:39:23;;;;;;;46.15;41.85;;;;;;;;;;5031860;28;20082;-66
2022/12/19 09:41:50;;;;;;;44.38;39.92;;;;;;;;;;5031794;28;20025;-68
2022/12/19 09:44:28;;;;;;;47.30;42.30;;;;;;;;;;5031571;28;20017;-66
2022/12/19 09:47:10;;;;;;;47.25;42.30;;;;;;;;;;5032145;28;20021;-65
2022/12/19 09:49:37;;;;;;;47.55;42.50;;;;;;;;;;5032100;28;20033;-65
2022/12/19 09:52:13;;;;;;;45.42;40.83;;;;;;;;;;5032295;28;20033;-65
2022/12/19 09:54:45;;;;;;;47.33;41.92;;;;;;;;;;5031342;28;20030;-65
2022/12/19 09:57:23;;;;;;;42.88;38.60;;;;;;;;;;5030902;28;20481;-65
2022/12/19 09:59:55;;;;;;;42.80;38.22;;;;;;;;;;5033797;28;20026;-66
2022/12/19 10:02:21;;;;;;;44.50;40.00;;;;;;;;;;5014651;28;20401;-65
2022/12/19 10:04:51;;;;;;;43.22;38.50;;;;;;;;;;5013169;28;20030;-65
2022/12/19 10:07:18;;;;;;;42.50;37.92;;;;;;;;;;5014983;28;20048;-65
2022/12/19 10:09:44;;;;;;;44.28;39.78;;;;;;;;;;5014196;28;20025;-65
2022/12/19 10:12:10;;;;;;;41.97;37.50;;;;;;;;;;5031875;28;20022;-64
2022/12/19 10:14:36;;;;;;;43.10;38.63;;;;;;;;;;5030682;28;20338;-65
2022/12/19 10:17:08;;;;;;;43.53;38.78;;;;;;;;;;5031066;28;20029;-64
2022/12/19 10:19:40;;;;;;;42.25;37.53;;;;;;;;;;5031522;28;20143;-66
2022/12/19 10:22:21;;;;;;;40.47;36.33;;;;;;;;;;5032701;28;20053;-65
2022/12/19 10:25:06;;;;;;;42.60;37.95;;;;;;;;;;5013788;28;20025;-65
2022/12/19 10:27:50;;;;;;;41.15;36.72;;;;;;;;;;5031281;28;20025;-65
2022/12/19 10:30:16;;;;;;;39.13;34.97;;;;;;;;;;5031483;28;20037;-65
2022/12/19 10:33:02;;;;;;;38.80;34.72;;;;;;;;;;5031248;28;20033;-64
2022/12/19 10:35:42;;;;;;;39.92;35.78;;;;;;;;;;5031330;28;20033;-65
2022/12/19 10:38:11;;;;;;;38.85;34.95;;;;;;;;;;5031633;28;20033;-65
2022/12/19 10:40:42;;;;;;;38.58;34.58;;;;;;;;;;5014093;28;20021;-65
2022/12/19 10:43:27;;;;;;;39.95;35.75;;;;;;;;;;5031354;28;20071;-66
2022/12/19 10:46:02;;;;;;;37.97;34.08;;;;;;;;;;5013684;28;20168;-65
2022/12/19 10:48:29;;;;;;;39.85;35.70;;;;;;;;;;5030680;28;20030;-64
2022/12/19 10:50:55;;;;;;;39.65;35.45;;;;;;;;;;5017516;28;20029;-69
2022/12/19 10:53:28;;;;;;;38.00;34.13;;;;;;;;;;5016085;28;20037;-68
2022/12/19 10:55:55;;;;;;;38.42;34.53;;;;;;;;;;5014944;28;20030;-68
2022/12/19 10:58:48;;;;;;;36.97;33.20;;;;;;;;;;5015665;28;20029;-68
2022/12/19 11:01:14;;;;;;;37.53;33.63;;;;;;;;;;5011604;28;20125;-66
2022/12/19 11:03:48;;;;;;;29.55;25.52;;;;;;;;;;5035180;28;20025;-65
2022/12/19 11:06:33;;;;;;;30.05;25.77;;;;;;;;;;5031363;28;20017;-65
2022/12/19 11:09:17;;;;;;;28.20;24.42;;;;;;;;;;5031857;28;20056;-65
2022/12/19 11:11:43;;;;;;;30.55;27.10;;;;;;;;;;5031930;28;20104;-64
2022/12/19 11:14:23;;;;;;;31.20;25.10;;;;;;;;;;5030425;28;20025;-65
2022/12/19 11:16:49;;;;;;;28.23;25.10;;;;;;;;;;5031691;28;20029;-65
2022/12/19 11:19:21;;;;;;;31.17;25.38;;;;;;;;;;5030737;28;20026;-70
2022/12/19 11:21:47;;;;;;;29.52;24.60;;;;;;;;;;5036051;28;20094;-65
2022/12/19 11:24:28;;;;;;;28.00;24.40;;;;;;;;;;5038806;28;20083;-65
2022/12/19 11:26:54;;;;;;;28.05;24.77;;;;;;;;;;5020126;28;20033;-66
2022/12/19 11:29:25;;;;;;;27.65;22.63;;;;;;;;;;5035750;28;20056;-65
2022/12/19 11:31:59;;;;;;;27.25;22.83;;;;;;;;;;5018919;28;20121;-66
2022/12/19 11:34:27;;;;;;;26.25;21.92;;;;;;;;;;5036238;28;20029;-66
2022/12/19 11:37:02;;;;;;;27.30;23.67;;;;;;;;;;5036826;28;20076;-66
2022/12/19 11:39:57;;;;;;;28.92;22.45;;;;;;;;;;5035824;28;20045;-65
2022/12/19 11:42:23;;;;;;;30.38;23.85;;;;;;;;;;5018778;28;20061;-66
2022/12/19 11:45:01;;;;;;;26.13;22.58;;;;;;;;;;5031904;28;20023;-66
2022/12/19 11:47:31;;;;;;;28.45;22.63;;;;;;;;;;5030352;28;20067;-65
2022/12/19 11:50:01;;;;;;;27.33;21.30;;;;;;;;;;5031439;28;20025;-65
2022/12/19 11:52:37;;;;;;;26.42;21.23;;;;;;;;;;5031341;28;20777;-65
2022/12/19 11:55:21;;;;;;;25.85;21.13;;;;;;;;;;5030572;28;20145;-66
2022/12/19 11:57:48;;;;;;;25.90;19.08;;;;;;;;;;5046288;23;20096;-62
2022/12/19 12:00:19;;;;;;;26.80;19.38;;;;;;;;;;5027478;28;20525;-63
2022/12/19 12:02:53;;;;;;;25.60;18.27;;;;;;;;;;5029012;28;20512;-64
2022/12/19 12:05:19;;;;;;;26.63;19.48;;;;;;;;;;5029886;28;20030;-64
2022/12/19 12:07:51;;;;;;;24.60;18.20;;;;;;;;;;5030195;28;20026;-62
2022/12/19 12:10:18;;;;;;;24.42;18.65;;;;;;;;;;5030099;28;20036;-62
2022/12/19 12:12:54;;;;;;;24.98;18.77;;;;;;;;;;5012101;28;20029;-64
2022/12/19 12:15:23;;;;;;;26.65;18.88;;;;;;;;;;5011586;28;20123;-63
2022/12/19 12:18:08;;;;;;;26.85;18.23;;;;;;;;;;5029890;28;20029;-63
2022/12/19 12:20:35;;;;;;;24.40;16.38;;;;;;;;;;5030196;28;20111;-62
2022/12/19 12:23:19;;;;;;;24.98;17.55;;;;;;;;;;5030058;28;20096;-63
2022/12/19 12:25:58;;;;;;;24.02;15.95;;;;;;;;;;5012489;28;20029;-62
2022/12/19 12:28:43;;;;;;;25.27;16.63;;;;;;;;;;5030035;28;20044;-61
2022/12/19 12:31:18;;;;;;;26.10;17.17;;;;;;;;;;5013208;28;20032;-62
2022/12/19 12:33:51;;;;;;;23.98;16.90;;;;;;;;;;5029521;28;20030;-63
2022/12/19 12:36:24;;;;;;;24.77;16.80;;;;;;;;;;5012355;28;20203;-64
2022/12/19 12:39:04;;;;;;;26.33;17.25;;;;;;;;;;5030436;28;20051;-63
2022/12/19 12:44:21;;;;;;;24.65;16.70;;;;;;;;;;5032990;28;20040;-63
2022/12/19 12:46:49;;;;;;;24.60;16.02;;;;;;;;;;5032657;28;20021;-63
2022/12/19 12:49:24;;;;;;;26.20;16.88;;;;;;;;;;5032588;28;20465;-63
2022/12/19 12:51:51;;;;;;;26.67;18.05;;;;;;;;;;5016193;28;20493;-64
2022/12/19 12:54:17;;;;;;;24.70;20.23;;;;;;;;;;5032876;28;20048;-65
2022/12/19 12:56:45;;;;;;;26.75;19.88;;;;;;;;;;5032893;28;20033;-64
2022/12/19 12:59:20;;;;;;;25.92;19.63;;;;;;;;;;5013727;28;20034;-61
2022/12/19 13:02:12;;;;;;;40.58;22.45;;;;;;;;;;5031574;28;20516;-62
2022/12/19 13:04:43;;;;;;;24.23;18.25;;;;;;;;;;5027624;28;20065;-64
2022/12/19 13:07:19;;;;;;;23.65;19.38;;;;;;;;;;5014148;28;20543;-63
2022/12/19 13:09:47;;;;;;;28.05;19.27;;;;;;;;;;5032968;28;20095;-60
2022/12/19 13:15:16;;;;;;;24.55;19.30;;;;;;;;;;5032562;28;20551;-63
2022/12/19 13:17:42;;;;;;;27.02;19.92;;;;;;;;;;5015324;28;20087;-64
2022/12/19 13:20:08;;;;;;;24.05;18.35;;;;;;;;;;5014105;28;20033;-64
2022/12/19 13:22:39;;;;;;;26.10;18.33;;;;;;;;;;5014911;28;20025;-62
2022/12/19 13:25:24;;;;;;;22.75;16.83;;;;;;;;;;5032557;28;20022;-60
2022/12/19 13:27:50;;;;;;;22.65;17.55;;;;;;;;;;5033338;28;20083;-60
2022/12/19 13:30:16;;;;;;;24.85;18.38;;;;;;;;;;5033307;28;20026;-62
2022/12/19 13:32:42;;;;;;;23.85;18.20;;;;;;;;;;5033412;28;20033;-63
2022/12/19 13:35:17;;;;;;;23.58;18.17;;;;;;;;;;5031818;28;20034;-62
2022/12/19 13:37:45;;;;;;;23.75;18.65;;;;;;;;;;5033060;28;20029;-61
2022/12/19 13:40:13;;;;;;;24.95;19.00;;;;;;;;;;5032871;28;20515;-62
2022/12/19 13:45:32;;;;;;;22.92;17.95;;;;;;;;;;5031898;28;20083;-62
2022/12/19 13:48:00;;;;;;;24.83;18.23;;;;;;;;;;5032860;28;20080;-62
2022/12/19 13:50:30;;;;;;;24.80;18.27;;;;;;;;;;5032175;28;20022;-63
2022/12/19 13:52:57;;;;;;;25.90;18.63;;;;;;;;;;5032108;28;20029;-60
2022/12/19 13:55:23;;;;;;;24.75;17.92;;;;;;;;;;5031764;28;20025;-62
2022/12/19 13:57:53;;;;;;;24.85;18.98;;;;;;;;;;5031987;28;20033;-63
2022/12/19 14:00:21;;;;;;;21.80;17.38;;;;;;;;;;5032486;28;20025;-62
2022/12/19 14:02:53;;;;;;;25.77;16.23;;;;;;;;;;5032279;28;20048;-63
2022/12/19 14:05:33;;;;;;;22.83;16.55;;;;;;;;;;5031062;28;20021;-58
2022/12/19 14:08:01;;;;;;;23.75;18.58;;;;;;;;;;5032263;28;20104;-60
2022/12/19 14:10:35;;;;;;;24.15;18.30;;;;;;;;;;5031659;28;20025;-62
2022/12/19 14:15:54;;;;;;;24.02;21.40;;;;;;;;;;5032550;28;20036;-63
2022/12/19 14:18:25;;;;;;;24.95;20.75;;;;;;;;;;5013687;28;20030;-62
2022/12/19 14:21:06;;;;;;;23.55;20.83;;;;;;;;;;5031995;28;20029;-60
2022/12/19 14:23:32;;;;;;;24.95;21.17;;;;;;;;;;5031739;28;20394;-63
2022/12/19 14:25:58;;;;;;;23.45;21.02;;;;;;;;;;5032118;28;20145;-64
2022/12/19 14:28:33;;;;;;;24.25;21.63;;;;;;;;;;5015424;28;20072;-62
2022/12/19 14:31:01;;;;;;;24.30;20.83;;;;;;;;;;5033956;28;20039;-62
2022/12/19 14:33:27;;;;;;;;;;;;;;;;;;5013123;28;20053;-61
2022/12/19 14:35:55;;;;;;;25.27;21.42;;;;;;;;;;5031142;28;20027;-60
2022/12/19 14:38:24;;;;;;;23.80;20.50;;;;;;;;;;5031172;28;20022;-62
2022/12/19 14:40:50;;;;;;;23.48;20.75;;;;;;;;;;5031294;28;20020;-59
2022/12/19 14:46:20;;;;;;;23.05;20.40;;;;;;;;;;5031004;28;20401;-60
2022/12/19 14:48:51;;;;;;;22.52;19.42;;;;;;;;;;5031305;28;20026;-58